Alba, Michigan
Current Conditions -  °F | °C
As of 7:58 AM on Monday 20 Oct 2014 (Local Time) from KACB Reporting Station
Overcast Overcast  
Wind Chill: 10°   Ceiling: 6000
Heat Index: 10°   Visibility: 10mi
Dew Point:   Wind: 3mph
Humidity: 88%   Direction: 200°SSW
Pressure: 29.75"   Gusts: NA
Location:  44.97°N, 84.97°W
Report Text: KACB 201158Z AUTO 20003KT 10SM OVC060 10/08 A2975 RMK AO2 T01000081
Loading
Personal Weather Stations






























Interactive Weather Map
Tropical Storm Tracking
New forecast layout! Learn more

10-Day Weather Forecast

Advertisements
Track Severe Weather on mobile